Time;durP1;ratioP1;P1;durP2;ratioP2;P2;SDS_P1;SDS_P2;PMS_P1;PMS_P2;Temp;Humidity;BMP_temperature;BMP_pressure;BME280_temperature;BME280_humidity;BME280_pressure;Samples;Min_cycle;Max_cycle;Signal;HPM_P1;HPM_P2
2024/01/18 00:01:58;;;;;;;3.67;1.60;;;;;;;17.04;41.89;94065.44;10365066;28;20030;-31
2024/01/18 00:06:59;;;;;;;2.43;1.10;;;;;;;17.03;41.57;94063.78;10364602;28;20301;-30
2024/01/18 00:11:59;;;;;;;1.17;1.00;;;;;;;17.03;41.99;94073.91;10365234;28;20037;-31
2024/01/18 00:16:59;;;;;;;1.97;0.80;;;;;;;17.01;41.43;94078.19;10363996;28;20040;-31
2024/01/18 00:22:02;;;;;;;2.07;1.07;;;;;;;17.00;41.35;94062.19;10363746;28;20296;-31
2024/01/18 00:27:02;;;;;;;1.95;1.20;;;;;;;17.00;41.46;94063.91;10364176;28;20057;-32
2024/01/18 00:32:03;;;;;;;4.30;0.90;;;;;;;17.01;41.28;94065.56;10363430;28;20034;-32
2024/01/18 00:37:03;;;;;;;1.15;0.90;;;;;;;17.01;41.92;94060.50;10364248;28;20041;-31
2024/01/18 00:42:04;;;;;;;1.95;0.90;;;;;;;17.02;41.71;94064.66;10363337;28;20117;-31
2024/01/18 00:47:04;;;;;;;1.52;0.90;;;;;;;17.01;42.95;94050.38;10364397;28;20041;-31
2024/01/18 00:52:05;;;;;;;0.97;0.87;;;;;;;17.03;42.42;94048.63;10363407;28;20037;-31
2024/01/18 00:57:05;;;;;;;2.00;0.98;;;;;;;17.03;42.70;94043.56;10364485;28;20049;-31
2024/01/18 01:02:06;;;;;;;3.23;1.00;;;;;;;17.02;43.51;94052.88;10362477;28;20144;-31
2024/01/18 01:07:06;;;;;;;1.07;0.70;;;;;;;17.00;42.47;94053.78;10363770;28;20346;-31
2024/01/18 01:12:08;;;;;;;2.07;1.33;;;;;;;17.02;42.24;94062.13;10358840;28;20288;-32
2024/01/18 01:17:08;;;;;;;2.97;1.10;;;;;;;17.00;44.08;94067.25;10362212;28;20755;-31
2024/01/18 01:22:08;;;;;;;1.45;1.33;;;;;;;17.00;43.18;94048.75;10362968;28;20048;-31
2024/01/18 01:27:09;;;;;;;1.30;0.83;;;;;;;16.99;43.31;94054.69;10362342;28;20060;-31
2024/01/18 01:32:09;;;;;;;1.80;1.00;;;;;;;17.00;43.26;94064.72;10363166;28;20718;-30
2024/01/18 01:37:09;;;;;;;1.50;1.20;;;;;;;17.02;43.89;94067.19;10362296;28;20060;-32
2024/01/18 01:42:10;;;;;;;1.40;0.83;;;;;;;17.02;43.04;94077.31;10362577;28;20042;-31
2024/01/18 01:47:10;;;;;;;2.40;1.20;;;;;;;17.02;42.86;94073.09;10361745;28;20064;-31
2024/01/18 01:52:12;;;;;;;3.10;1.20;;;;;;;17.02;45.35;94083.19;10361219;28;20034;-31
2024/01/18 01:57:13;;;;;;;3.25;1.20;;;;;;;17.02;45.66;94072.25;10363037;28;20327;-31
2024/01/18 02:02:17;;;;;;;2.80;0.98;;;;;;;17.02;44.21;94072.25;10361103;28;20041;-30
2024/01/18 02:07:19;;;;;;;3.17;0.95;;;;;;;17.01;43.38;94070.59;10358503;28;20041;-31
2024/01/18 02:12:23;;;;;;;3.17;1.00;;;;;;;17.02;44.17;94067.19;10361074;28;20038;-31
2024/01/18 02:17:24;;;;;;;1.55;0.98;;;;;;;17.03;44.66;94058.72;10362174;28;20051;-31
2024/01/18 02:22:27;;;;;;;3.83;1.17;;;;;;;17.02;43.73;94062.13;10360476;28;20038;-31
2024/01/18 02:27:27;;;;;;;2.33;1.08;;;;;;;17.03;44.03;94061.25;10361083;28;20049;-31
2024/01/18 02:32:27;;;;;;;1.37;0.97;;;;;;;17.02;43.91;94068.03;10361153;28;20034;-31
2024/01/18 02:37:28;;;;;;;2.83;1.07;;;;;;;17.02;43.99;94065.50;10362359;28;20030;-31
2024/01/18 02:42:28;;;;;;;2.13;1.10;;;;;;;16.97;44.17;94053.88;10368745;28;20033;-30
2024/01/18 02:47:29;;;;;;;2.55;0.90;;;;;;;17.01;43.36;94055.44;10369110;28;20030;-31
2024/01/18 02:52:30;;;;;;;1.95;1.08;;;;;;;17.00;43.09;94043.69;10367080;28;20037;-33
2024/01/18 02:57:30;;;;;;;2.17;1.20;;;;;;;17.00;44.05;94041.16;10366408;28;20091;-32
2024/01/18 03:02:30;;;;;;;2.47;1.60;;;;;;;16.98;43.44;94040.41;10367638;28;20303;-30
2024/01/18 03:07:31;;;;;;;2.50;0.97;;;;;;;16.98;42.84;94030.28;10364297;28;20030;-31
2024/01/18 03:12:37;;;;;;;2.67;0.88;;;;;;;17.00;43.06;94029.34;10367215;28;20192;-31
2024/01/18 03:17:37;;;;;;;1.08;0.90;;;;;;;16.99;43.96;94017.59;10367543;28;20034;-31
2024/01/18 03:22:40;;;;;;;2.03;1.50;;;;;;;17.01;44.35;94022.59;10366535;28;20045;-31
2024/01/18 03:27:41;;;;;;;2.80;2.20;;;;;;;17.01;44.16;94015.00;10367125;28;20590;-31
2024/01/18 03:32:41;;;;;;;2.40;1.00;;;;;;;17.00;43.43;94013.38;10367287;28;20056;-31
2024/01/18 03:37:41;;;;;;;2.07;0.83;;;;;;;16.99;43.17;94006.66;10366607;28;20029;-31
2024/01/18 03:42:42;;;;;;;2.70;0.93;;;;;;;17.00;43.67;93993.16;10366455;28;20060;-30
2024/01/18 03:47:42;;;;;;;2.13;1.17;;;;;;;17.00;44.28;93999.00;10365797;28;20129;-31
2024/01/18 03:52:42;;;;;;;1.17;0.87;;;;;;;16.92;43.40;93990.88;10364551;28;20635;-30
2024/01/18 03:57:43;;;;;;;1.70;0.90;;;;;;;16.97;43.60;94008.41;10365633;28;20037;-31
2024/01/18 04:02:44;;;;;;;1.00;0.73;;;;;;;16.98;43.26;94015.13;10365905;28;20394;-30
2024/01/18 04:07:44;;;;;;;0.80;0.70;;;;;;;17.00;43.32;94015.88;10364173;28;20304;-31
2024/01/18 04:12:44;;;;;;;1.00;0.70;;;;;;;16.99;43.61;94020.09;10364268;28;20040;-31
2024/01/18 04:17:45;;;;;;;1.80;1.20;;;;;;;17.01;44.54;94007.44;10365784;28;20060;-31
2024/01/18 04:22:45;;;;;;;2.37;1.13;;;;;;;17.00;43.61;94003.25;10363862;28;20486;-31
2024/01/18 04:27:45;;;;;;;3.03;1.00;;;;;;;17.00;44.24;93988.09;10364693;28;20037;-35
2024/01/18 04:32:46;;;;;;;1.77;1.10;;;;;;;16.99;44.79;93979.69;10363674;28;20040;-31
2024/01/18 04:37:46;;;;;;;2.37;0.67;;;;;;;17.00;43.88;93998.19;10358507;28;20030;-31
2024/01/18 04:42:46;;;;;;;3.67;1.10;;;;;;;17.01;43.36;93989.75;10362619;28;20033;-31
2024/01/18 04:47:47;;;;;;;3.37;0.97;;;;;;;16.97;42.74;93981.44;10362216;28;20037;-30
2024/01/18 04:52:49;;;;;;;1.55;0.75;;;;;;;17.05;42.62;93981.13;10361553;28;20478;-30
2024/01/18 04:57:49;;;;;;;2.60;0.60;;;;;;;17.05;42.83;93988.72;10362523;28;20510;-31
2024/01/18 05:02:49;;;;;;;2.40;1.05;;;;;;;17.07;42.43;93979.41;10362117;28;20038;-31
2024/01/18 05:07:50;;;;;;;2.13;1.20;;;;;;;17.09;43.42;93977.63;10355100;28;20502;-30
2024/01/18 05:12:52;;;;;;;1.10;0.63;;;;;;;17.10;43.18;93990.22;10361730;28;20038;-31
2024/01/18 05:17:54;;;;;;;3.13;0.70;;;;;;;17.11;43.44;93975.88;10356786;28;20284;-31
2024/01/18 05:22:54;;;;;;;0.93;0.70;;;;;;;17.12;42.82;93987.63;10361004;28;20053;-31
2024/01/18 05:27:55;;;;;;;1.63;0.80;;;;;;;17.15;43.59;93982.47;10355965;28;20502;-30
2024/01/18 05:32:56;;;;;;;2.72;1.00;;;;;;;17.18;43.47;93972.22;10362343;28;20061;-31
2024/01/18 05:37:56;;;;;;;2.70;1.30;;;;;;;17.19;43.48;93978.94;10351082;28;20026;-31
2024/01/18 05:42:56;;;;;;;4.27;0.70;;;;;;;17.18;43.08;93964.66;10359286;28;20025;-31
2024/01/18 05:47:57;;;;;;;1.73;0.57;;;;;;;17.18;43.14;93972.22;10361871;28;20038;-31
2024/01/18 05:52:57;;;;;;;1.63;1.20;;;;;;;17.14;42.71;93935.31;10360192;28;20088;-31
2024/01/18 05:58:00;;;;;;;3.53;0.70;;;;;;;17.11;42.97;93943.00;10359924;28;20116;-32
2024/01/18 06:03:00;;;;;;;4.30;1.08;;;;;;;17.13;42.00;93963.97;10360649;28;20675;-31
2024/01/18 06:08:02;;;;;;;0.87;0.60;;;;;;;17.15;41.39;93960.53;10361376;28;20034;-32
2024/01/18 06:13:02;;;;;;;3.42;1.20;;;;;;;17.16;41.84;93938.59;10363053;28;20615;-31
2024/01/18 06:18:05;;;;;;;3.38;0.60;;;;;;;17.16;42.32;93948.72;10369825;28;20057;-30
2024/01/18 06:23:06;;;;;;;0.70;0.40;;;;;;;17.15;42.18;93932.72;10368354;28;20426;-31
2024/01/18 06:28:06;;;;;;;4.45;1.08;;;;;;;17.15;46.77;93942.81;10368987;28;20049;-30
2024/01/18 06:33:07;;;;;;;1.60;0.82;;;;;;;17.05;46.27;93946.59;10365820;28;20041;-31
2024/01/18 06:38:07;;;;;;;1.50;0.70;;;;;;;17.11;44.47;93945.53;10367057;28;20064;-32
2024/01/18 06:43:07;;;;;;;1.67;0.63;;;;;;;17.14;43.56;93958.06;10365661;28;20042;-31
2024/01/18 06:48:08;;;;;;;0.87;0.63;;;;;;;17.14;43.05;93960.59;10368340;28;20060;-32
2024/01/18 06:53:10;;;;;;;2.33;0.73;;;;;;;17.13;42.73;93963.97;10368509;28;20038;-30
2024/01/18 06:58:11;;;;;;;3.08;1.17;;;;;;;17.07;42.92;93954.13;10368238;28;20494;-31
2024/01/18 07:03:12;;;;;;;1.15;0.77;;;;;;;17.10;42.66;93964.94;10367435;28;20038;-31
2024/01/18 07:08:12;;;;;;;0.88;0.65;;;;;;;17.09;42.18;93959.94;10367963;28;20037;-30
2024/01/18 07:13:13;;;;;;;0.57;0.50;;;;;;;17.09;42.33;93972.59;10368134;28;20049;-30
2024/01/18 07:18:13;;;;;;;1.73;0.90;;;;;;;17.07;42.34;93984.47;10368463;28;20565;-31
2024/01/18 07:23:14;;;;;;;1.03;0.60;;;;;;;17.06;42.19;93985.34;10368969;28;20044;-31
2024/01/18 07:28:14;;;;;;;2.95;0.88;;;;;;;17.05;42.39;93965.97;10368075;28;20120;-31
2024/01/18 07:33:15;;;;;;;0.87;0.53;;;;;;;17.03;42.15;93988.81;10367373;28;20045;-31
2024/01/18 07:38:16;;;;;;;0.88;0.80;;;;;;;17.02;42.29;93989.69;10368469;28;20724;-31
2024/01/18 07:43:16;;;;;;;1.07;0.40;;;;;;;17.01;42.32;93987.22;10367097;28;20088;-31
2024/01/18 07:48:16;;;;;;;2.67;0.40;;;;;;;16.96;42.19;93997.50;10367367;28;20040;-30
2024/01/18 07:53:18;;;;;;;1.17;0.60;;;;;;;16.96;42.15;93967.16;10367336;28;20096;-30
2024/01/18 07:58:18;;;;;;;2.83;1.05;;;;;;;17.01;41.61;93972.03;10366827;28;20518;-31
2024/01/18 08:03:19;;;;;;;1.65;0.50;;;;;;;17.04;41.82;93984.56;10366218;28;20068;-31
2024/01/18 08:08:19;;;;;;;0.53;0.50;;;;;;;17.05;41.87;93976.94;10366810;28;20046;-30
2024/01/18 08:13:19;;;;;;;0.87;0.50;;;;;;;17.07;41.74;93992.03;10365401;28;20559;-31
2024/01/18 08:18:20;;;;;;;0.97;0.80;;;;;;;17.04;41.68;93980.34;10364748;28;20033;-31
2024/01/18 08:23:22;;;;;;;1.83;0.30;;;;;;;17.06;41.57;93968.47;10365102;28;20418;-31
2024/01/18 08:28:23;;;;;;;0.50;0.40;;;;;;;17.07;41.64;93964.25;10364856;28;20038;-31
2024/01/18 08:33:23;;;;;;;0.20;0.20;;;;;;;17.07;41.42;93971.81;10363571;28;20038;-31
2024/01/18 08:38:23;;;;;;;1.83;0.53;;;;;;;17.06;41.22;93965.13;10364708;28;20038;-32
2024/01/18 08:43:26;;;;;;;0.70;0.50;;;;;;;17.06;41.22;93972.72;10363236;28;20049;-32
2024/01/18 08:48:27;;;;;;;1.90;0.43;;;;;;;17.06;41.49;93987.88;10363587;28;20153;-31
2024/01/18 08:53:27;;;;;;;2.00;0.50;;;;;;;17.05;41.37;93991.25;10364215;28;20052;-31
2024/01/18 08:58:27;;;;;;;0.50;0.45;;;;;;;17.02;41.18;93997.28;10363782;28;20400;-31
2024/01/18 09:03:28;;;;;;;0.40;0.40;;;;;;;17.05;41.39;93998.84;10362775;28;20460;-30
2024/01/18 09:08:28;;;;;;;0.80;0.50;;;;;;;17.05;41.31;93986.19;10364130;28;20045;-31
2024/01/18 09:13:29;;;;;;;0.33;0.33;;;;;;;17.04;41.62;93994.66;10362938;28;20095;-31
2024/01/18 09:18:29;;;;;;;0.67;0.30;;;;;;;17.04;41.26;93999.72;10362929;28;20530;-30
2024/01/18 09:23:29;;;;;;;0.80;0.40;;;;;;;17.02;41.17;94014.13;10362890;28;20687;-31
2024/01/18 09:28:30;;;;;;;0.50;0.30;;;;;;;17.03;41.08;93995.56;10362307;28;20092;-31
2024/01/18 09:33:30;;;;;;;0.55;0.30;;;;;;;17.02;41.00;94011.59;10361883;28;20046;-31
2024/01/18 09:38:31;;;;;;;0.50;0.40;;;;;;;17.02;41.11;94021.69;10361996;28;20041;-31
2024/01/18 09:43:39;;;;;;;1.08;0.45;;;;;;;17.00;41.52;94013.38;10362696;28;20048;-30
2024/01/18 09:48:40;;;;;;;0.25;0.25;;;;;;;16.99;41.03;94042.03;10354473;28;20037;-30
2024/01/18 09:53:47;;;;;;;0.75;0.45;;;;;;;16.93;40.86;94011.94;10362606;28;20034;-31
2024/01/18 09:58:49;;;;;;;0.88;0.40;;;;;;;16.95;40.46;94043.84;10361303;28;20029;-31
2024/01/18 10:03:50;;;;;;;0.45;0.30;;;;;;;16.85;40.68;94018.97;10361448;28;20040;-31
2024/01/18 10:08:52;;;;;;;1.92;0.65;;;;;;;16.97;41.07;94059.78;10361762;28;20033;-30
2024/01/18 10:13:56;;;;;;;1.08;0.40;;;;;;;16.96;40.99;94088.47;10361264;28;20030;-33
2024/01/18 10:18:58;;;;;;;2.10;0.63;;;;;;;16.95;40.91;94066.59;10360906;28;20033;-31
2024/01/18 10:23:59;;;;;;;0.35;0.35;;;;;;;16.95;41.24;94056.50;10361198;28;20208;-31
2024/01/18 10:29:00;;;;;;;0.47;0.32;;;;;;;16.95;40.83;94053.13;10361067;28;20473;-32
2024/01/18 10:34:02;;;;;;;0.55;0.40;;;;;;;16.96;41.00;94085.94;10360485;28;20041;-30
2024/01/18 10:39:16;;;;;;;1.63;0.65;;;;;;;16.97;41.37;94084.22;10360694;28;20116;-31
2024/01/18 10:44:17;;;;;;;0.32;0.30;;;;;;;17.01;41.60;94116.09;10361012;28;20517;-30
2024/01/18 10:49:18;;;;;;;0.85;0.25;;;;;;;16.98;41.63;94116.22;10358988;28;20457;-31
2024/01/18 10:54:18;;;;;;;0.80;0.40;;;;;;;17.09;41.30;94155.38;10354995;28;20080;-31
2024/01/18 10:59:20;;;;;;;1.07;0.50;;;;;;;17.10;41.15;94176.44;10363379;28;20037;-31
2024/01/18 11:04:20;;;;;;;3.67;0.63;;;;;;;17.09;42.32;94231.19;10367420;28;20117;-31
2024/01/18 11:09:24;;;;;;;3.13;0.40;;;;;;;17.09;41.58;94264.06;10368612;28;20520;-31
2024/01/18 11:14:27;;;;;;;1.40;0.38;;;;;;;17.08;41.44;94271.72;10366663;28;20061;-33
2024/01/18 11:19:41;;;;;;;3.65;0.45;;;;;;;17.03;41.09;94283.66;10366712;28;20030;-30
2024/01/18 11:24:41;;;;;;;2.22;0.50;;;;;;;17.06;40.77;94299.56;10367798;28;20100;-31
2024/01/18 11:29:42;;;;;;;0.30;0.30;;;;;;;17.09;40.80;94318.84;10367184;28;20038;-31
2024/01/18 11:34:45;;;;;;;1.80;0.50;;;;;;;17.03;41.51;94341.78;10364368;28;20293;-30
2024/01/18 11:39:46;;;;;;;3.40;0.60;;;;;;;17.10;41.54;94348.31;10367304;28;20053;-30
2024/01/18 11:45:16;;;;;;;1.35;0.30;;;;;;;17.11;41.71;94385.34;10365899;28;20060;-31
2024/01/18 11:50:17;;;;;;;2.38;0.40;;;;;;;17.12;42.25;94412.28;10365157;28;20041;-31
2024/01/18 11:55:17;;;;;;;4.23;0.87;;;;;;;17.11;42.43;94420.72;10366251;28;20041;-31
2024/01/18 12:00:18;;;;;;;1.13;0.50;;;;;;;17.10;42.99;94436.78;10365613;28;20042;-31
2024/01/18 12:05:19;;;;;;;1.38;0.50;;;;;;;17.11;42.49;94448.53;10364647;28;20042;-30
2024/01/18 12:10:20;;;;;;;4.72;1.23;;;;;;;17.10;43.11;94455.31;10363695;28;20611;-31
2024/01/18 12:15:20;;;;;;;2.28;0.80;;;;;;;17.12;42.61;94463.66;10365044;28;20113;-31
2024/01/18 12:20:21;;;;;;;3.60;0.80;;;;;;;17.14;43.03;94499.03;10364461;28;20042;-30
2024/01/18 12:25:21;;;;;;;2.57;0.53;;;;;;;16.95;43.29;94505.47;10363384;28;20033;-30
2024/01/18 12:30:22;;;;;;;2.50;0.80;;;;;;;17.05;42.54;94516.97;10360792;28;20108;-31
2024/01/18 12:35:23;;;;;;;3.13;0.70;;;;;;;17.10;42.36;94530.31;10360711;28;20049;-30
2024/01/18 12:40:23;;;;;;;3.60;0.65;;;;;;;17.12;42.81;94538.66;10363034;28;20428;-31
2024/01/18 12:45:23;;;;;;;2.53;1.20;;;;;;;17.15;42.79;94568.94;10363336;28;20034;-31
2024/01/18 12:50:24;;;;;;;2.42;0.90;;;;;;;17.13;43.00;94573.19;10363594;28;20048;-32
2024/01/18 12:55:24;;;;;;;1.30;0.70;;;;;;;17.16;43.31;94611.03;10364331;28;20048;-31
2024/01/18 13:00:26;;;;;;;3.40;1.43;;;;;;;17.20;43.30;94621.03;10361893;28;20045;-31
2024/01/18 13:05:26;;;;;;;4.47;1.13;;;;;;;17.21;43.43;94634.47;10362785;28;20044;-31
2024/01/18 13:10:27;;;;;;;2.92;0.80;;;;;;;17.21;43.93;94654.69;10363598;28;20033;-30
2024/01/18 13:15:27;;;;;;;3.13;0.90;;;;;;;17.23;44.17;94671.50;10362946;28;20604;-31
2024/01/18 13:20:27;;;;;;;2.17;1.27;;;;;;;17.23;44.06;94686.66;10362341;28;20758;-30
2024/01/18 13:25:28;;;;;;;2.83;0.73;;;;;;;17.22;43.91;94699.34;10363137;28;20057;-31
2024/01/18 13:30:28;;;;;;;2.93;0.93;;;;;;;17.22;43.92;94717.03;10363049;28;20041;-30
2024/01/18 13:35:28;;;;;;;2.17;1.03;;;;;;;17.21;43.90;94735.59;10361579;28;20033;-30
2024/01/18 13:40:29;;;;;;;2.57;0.70;;;;;;;17.23;43.83;94754.13;10363286;28;20038;-32
2024/01/18 13:45:29;;;;;;;2.10;0.80;;;;;;;17.22;44.24;94782.78;10361779;28;20478;-30
2024/01/18 13:50:29;;;;;;;2.47;1.00;;;;;;;17.21;44.28;94812.31;10359331;28;20047;-31
2024/01/18 13:55:30;;;;;;;3.67;1.07;;;;;;;17.13;44.07;94803.25;10362497;28;20041;-31
2024/01/18 14:00:30;;;;;;;2.10;0.70;;;;;;;17.23;44.28;94829.97;10361938;28;20301;-31
2024/01/18 14:05:31;;;;;;;2.80;0.60;;;;;;;17.22;44.31;94840.94;10361014;28;20405;-31
2024/01/18 14:10:32;;;;;;;2.80;0.63;;;;;;;17.23;45.18;94866.19;10362086;28;20704;-30
2024/01/18 14:15:36;;;;;;;1.70;0.70;;;;;;;17.24;45.66;94882.22;10361861;28;20289;-30
2024/01/18 14:20:36;;;;;;;2.25;0.68;;;;;;;17.23;47.07;94906.66;10361244;28;20042;-30
2024/01/18 14:25:37;;;;;;;1.83;1.42;;;;;;;17.24;46.90;94935.31;10361901;28;20038;-31
2024/01/18 14:30:37;;;;;;;1.80;0.57;;;;;;;17.26;46.38;94958.84;10360907;28;20041;-31
2024/01/18 14:35:38;;;;;;;3.13;0.82;;;;;;;17.27;46.90;94978.22;10364860;28;20048;-30
2024/01/18 14:40:38;;;;;;;1.90;1.27;;;;;;;17.28;46.60;94997.56;10369687;28;20053;-31
2024/01/18 14:45:38;;;;;;;1.93;1.00;;;;;;;17.28;47.04;95020.34;10368262;28;20497;-32
2024/01/18 14:50:40;;;;;;;1.75;0.73;;;;;;;17.27;46.79;95028.78;10368012;28;20030;-31
2024/01/18 14:55:41;;;;;;;0.93;0.60;;;;;;;17.25;47.03;95046.53;10369201;28;20029;-31
2024/01/18 15:00:43;;;;;;;1.07;0.60;;;;;;;17.23;46.20;95058.38;10367628;28;20053;-31
2024/01/18 15:05:44;;;;;;;1.83;0.73;;;;;;;17.28;47.23;95097.06;10367324;28;20029;-31
2024/01/18 15:10:46;;;;;;;2.80;0.80;;;;;;;17.25;47.55;95097.09;10365200;28;20421;-32
2024/01/18 15:15:47;;;;;;;2.95;1.27;;;;;;;17.25;47.54;95108.94;10366939;28;20908;-31
2024/01/18 15:20:47;;;;;;;2.60;0.87;;;;;;;17.24;48.04;95114.84;10366602;28;20030;-31
2024/01/18 15:25:47;;;;;;;3.65;0.90;;;;;;;17.25;48.44;95134.22;10367813;28;20096;-30
2024/01/18 15:30:48;;;;;;;1.77;0.70;;;;;;;17.25;47.32;95157.78;10366702;28;20034;-31
2024/01/18 15:35:48;;;;;;;0.70;0.60;;;;;;;17.25;48.28;95172.97;10366661;28;20034;-31
2024/01/18 15:40:49;;;;;;;1.80;0.90;;;;;;;17.24;48.44;95200.84;10367212;28;20068;-30
2024/01/18 15:45:49;;;;;;;2.42;1.05;;;;;;;17.24;48.46;95228.66;10366337;28;20121;-31
2024/01/18 15:50:49;;;;;;;0.93;0.60;;;;;;;17.24;48.57;95237.06;10365775;28;20100;-31
2024/01/18 15:55:50;;;;;;;1.30;0.63;;;;;;;17.25;48.50;95258.94;10366897;28;20029;-31
2024/01/18 16:00:50;;;;;;;1.00;0.50;;;;;;;17.25;48.42;95276.66;10365569;28;20792;-31
2024/01/18 16:05:51;;;;;;;1.00;0.55;;;;;;;17.24;48.40;95281.75;10365717;28;20058;-31
2024/01/18 16:10:51;;;;;;;2.00;0.63;;;;;;;17.23;47.96;95300.34;10362450;28;20022;-30
2024/01/18 16:15:56;;;;;;;0.97;0.50;;;;;;;17.26;48.39;95328.09;10365283;28;20030;-31
2024/01/18 16:20:57;;;;;;;1.70;0.40;;;;;;;17.26;47.89;95340.72;10364172;28;20442;-31
2024/01/18 16:25:57;;;;;;;0.52;0.50;;;;;;;17.27;47.32;95355.88;10364333;28;20516;-31
2024/01/18 16:30:58;;;;;;;0.70;0.40;;;;;;;17.27;48.06;95377.81;10365366;28;20034;-30
2024/01/18 16:35:58;;;;;;;1.37;0.70;;;;;;;17.27;47.72;95385.38;10364555;28;20026;-31
2024/01/18 16:40:58;;;;;;;2.03;0.40;;;;;;;17.25;47.01;95398.06;10364740;28;20830;-30
2024/01/18 16:46:00;;;;;;;1.03;0.70;;;;;;;17.26;46.67;95402.25;10364444;28;20049;-32
2024/01/18 16:51:00;;;;;;;1.65;0.47;;;;;;;17.25;46.41;95405.63;10363593;28;20076;-31
2024/01/18 16:56:00;;;;;;;1.27;0.80;;;;;;;17.24;46.61;95413.28;10363994;28;20108;-32
2024/01/18 17:01:01;;;;;;;2.70;0.70;;;;;;;17.25;46.32;95422.53;10363066;28;20048;-31
2024/01/18 17:06:02;;;;;;;1.30;0.60;;;;;;;17.25;46.09;95442.75;10363288;28;20125;-31
2024/01/18 17:11:02;;;;;;;2.20;0.60;;;;;;;17.18;45.36;95467.31;10360879;28;20037;-30
2024/01/18 17:16:03;;;;;;;1.90;0.90;;;;;;;17.12;45.24;95469.94;10356949;28;20064;-32
2024/01/18 17:21:04;;;;;;;4.90;1.13;;;;;;;16.74;43.51;95478.91;10356569;28;20034;-30
2024/01/18 17:26:05;;;;;;;6.78;1.50;;;;;;;16.56;43.13;95501.88;10358990;28;20026;-31
2024/01/18 17:31:06;;;;;;;3.13;1.13;;;;;;;16.71;43.81;95496.59;10362931;28;20038;-31
2024/01/18 17:36:06;;;;;;;4.53;1.00;;;;;;;16.78;44.39;95508.31;10361443;28;20302;-31
2024/01/18 17:41:07;;;;;;;1.13;0.80;;;;;;;16.80;45.27;95507.44;10361889;28;20040;-31
2024/01/18 17:46:08;;;;;;;2.13;1.00;;;;;;;16.84;46.10;95526.75;10362689;28;20042;-30
2024/01/18 17:51:08;;;;;;;8.17;1.40;;;;;;;16.83;46.49;95521.75;10360865;28;20618;-31
2024/01/18 17:56:11;;;;;;;5.63;1.47;;;;;;;17.03;46.84;95530.75;10362151;28;20292;-31
2024/01/18 18:01:12;;;;;;;10.63;3.67;;;;;;;16.93;45.88;95538.47;10358940;28;20033;-31
2024/01/18 18:06:13;;;;;;;7.40;1.42;;;;;;;17.07;45.79;95546.72;10361048;28;20049;-31
2024/01/18 18:11:14;;;;;;;5.75;1.35;;;;;;;17.15;45.96;95544.91;10363255;28;20096;-31
2024/01/18 18:16:16;;;;;;;4.03;1.40;;;;;;;17.17;45.76;95553.31;10369397;28;20080;-30
2024/01/18 18:21:20;;;;;;;2.90;1.40;;;;;;;17.23;45.74;95570.94;10366110;28;20038;-31
2024/01/18 18:26:23;;;;;;;4.47;1.30;;;;;;;17.27;45.14;95580.16;10324028;28;20042;-31
2024/01/18 18:31:23;;;;;;;6.20;1.73;;;;;;;17.30;44.92;95593.59;10377706;28;20071;-32
2024/01/18 18:36:23;;;;;;;6.03;2.00;;;;;;;17.30;46.45;95606.25;10368492;28;20048;-31
2024/01/18 18:41:25;;;;;;;4.73;2.03;;;;;;;17.27;47.50;95606.28;10369290;28;20018;-31
2024/01/18 18:46:25;;;;;;;7.90;1.45;;;;;;;17.28;47.96;95615.53;10367586;28;20065;-31
2024/01/18 18:51:26;;;;;;;6.00;1.70;;;;;;;17.26;47.92;95613.88;10368068;28;20033;-32
2024/01/18 18:56:26;;;;;;;5.87;1.73;;;;;;;17.23;47.45;95617.28;10368302;28;20291;-30
2024/01/18 19:01:26;;;;;;;3.53;1.40;;;;;;;17.29;46.35;95639.13;10368599;28;20033;-31
2024/01/18 19:06:28;;;;;;;4.87;1.63;;;;;;;17.31;46.46;95647.56;10366900;28;20044;-30
2024/01/18 19:11:28;;;;;;;5.40;1.67;;;;;;;17.29;46.57;95664.41;10365367;28;20508;-31
2024/01/18 19:16:29;;;;;;;4.40;1.48;;;;;;;17.29;46.69;95679.59;10363647;28;20041;-31
2024/01/18 19:21:29;;;;;;;4.32;1.83;;;;;;;17.31;46.37;95693.09;10361795;28;20030;-32
2024/01/18 19:26:29;;;;;;;3.90;1.20;;;;;;;17.32;45.83;95697.28;10360464;28;20040;-31
2024/01/18 19:31:31;;;;;;;4.43;1.20;;;;;;;17.31;45.66;95708.28;10363729;28;20437;-31
2024/01/18 19:36:31;;;;;;;5.15;1.50;;;;;;;17.31;45.05;95711.63;10360690;28;20115;-31
2024/01/18 19:41:31;;;;;;;8.57;1.50;;;;;;;17.31;45.44;95728.50;10363214;28;20103;-31
2024/01/18 19:46:32;;;;;;;4.20;1.37;;;;;;;17.31;44.98;95728.50;10363625;28;20030;-30
2024/01/18 19:51:32;;;;;;;4.97;3.07;;;;;;;17.26;46.05;95731.06;10362842;28;20042;-31
2024/01/18 19:56:33;;;;;;;6.38;2.45;;;;;;;17.25;47.86;95741.22;10362302;28;20034;-31
2024/01/18 20:01:33;;;;;;;7.78;3.38;;;;;;;17.28;46.88;95763.94;10362790;28;20038;-31
2024/01/18 20:06:34;;;;;;;4.93;2.13;;;;;;;17.22;47.30;95771.56;10359660;28;20038;-31
2024/01/18 20:11:34;;;;;;;7.38;2.50;;;;;;;17.28;47.37;95789.22;10361919;28;20044;-31
2024/01/18 20:16:34;;;;;;;4.97;2.03;;;;;;;17.26;46.25;95801.06;10360827;28;20022;-30
2024/01/18 20:21:35;;;;;;;6.10;2.50;;;;;;;17.25;47.65;95806.97;10361113;28;20033;-30
2024/01/18 20:26:37;;;;;;;4.67;2.50;;;;;;;17.25;46.95;95832.28;10359641;28;20304;-31
2024/01/18 20:31:45;;;;;;;10.30;3.60;;;;;;;17.26;46.20;95844.06;10360061;28;20049;-30
2024/01/18 20:36:46;;;;;;;5.65;2.35;;;;;;;17.24;46.15;95848.31;10360419;28;20041;-37
2024/01/18 20:41:46;;;;;;;5.23;2.70;;;;;;;17.22;46.31;95863.47;10361088;28;20038;-31
2024/01/18 20:46:46;;;;;;;5.20;2.27;;;;;;;17.21;46.64;95868.53;10359908;28;20038;-31
2024/01/18 20:51:47;;;;;;;6.57;2.50;;;;;;;17.20;46.89;95882.91;10359998;28;20902;-31
2024/01/18 20:56:47;;;;;;;5.90;2.53;;;;;;;17.24;43.68;95893.84;10360637;28;20025;-31
2024/01/18 21:01:47;;;;;;;4.87;2.67;;;;;;;17.24;45.12;95888.78;10359333;28;20044;-31
2024/01/18 21:06:48;;;;;;;5.00;2.60;;;;;;;17.28;43.32;95886.22;10356088;28;20335;-31
2024/01/18 21:11:51;;;;;;;6.73;2.70;;;;;;;17.28;43.40;95883.66;10359625;28;20042;-32
2024/01/18 21:16:51;;;;;;;4.50;3.20;;;;;;;17.27;44.83;95889.59;10363341;28;20330;-29
2024/01/18 21:21:52;;;;;;;6.13;3.33;;;;;;;17.28;45.95;95895.47;10362097;28;20092;-30
2024/01/18 21:26:52;;;;;;;5.63;2.97;;;;;;;17.29;44.80;95902.19;10363244;28;20642;-32
2024/01/18 21:31:52;;;;;;;4.03;2.60;;;;;;;17.26;45.70;95917.41;10362979;28;20382;-31
2024/01/18 21:36:53;;;;;;;6.60;2.80;;;;;;;17.26;45.60;95913.19;10361806;28;20033;-31
2024/01/18 21:41:53;;;;;;;6.30;2.63;;;;;;;17.26;45.26;95917.41;10361710;28;20040;-31
2024/01/18 21:46:54;;;;;;;5.20;2.60;;;;;;;17.26;45.38;95927.53;10353910;28;20065;-31
2024/01/18 21:51:54;;;;;;;4.45;2.53;;;;;;;17.25;45.79;95936.78;10361886;28;20470;-31
2024/01/18 21:56:55;;;;;;;4.50;3.17;;;;;;;17.05;42.42;95938.66;10362700;28;20046;-33
2024/01/18 22:01:55;;;;;;;6.43;3.80;;;;;;;16.94;41.61;95929.44;10361031;28;20099;-31
2024/01/18 22:06:55;;;;;;;7.50;3.33;;;;;;;17.08;44.19;95947.91;10361242;28;20494;-31
2024/01/18 22:11:56;;;;;;;7.27;3.20;;;;;;;17.14;44.34;95958.81;10362137;28;20335;-31
2024/01/18 22:16:56;;;;;;;7.07;2.90;;;;;;;17.16;44.47;95971.47;10360704;28;20030;-31
2024/01/18 22:21:57;;;;;;;5.07;3.23;;;;;;;17.16;44.76;95979.03;10356887;28;20037;-31
2024/01/18 22:26:57;;;;;;;5.18;2.78;;;;;;;17.17;44.93;95989.13;10360726;28;20190;-31
2024/01/18 22:31:58;;;;;;;4.17;2.10;;;;;;;17.11;44.52;95988.34;10361675;28;20041;-31
2024/01/18 22:36:58;;;;;;;3.73;2.37;;;;;;;17.16;45.58;95996.75;10361021;28;20532;-32
2024/01/18 22:41:58;;;;;;;4.60;2.80;;;;;;;17.19;45.06;96016.94;10361665;28;20038;-30
2024/01/18 22:46:59;;;;;;;4.05;2.30;;;;;;;17.20;45.52;96024.53;10361104;28;20412;-31
2024/01/18 22:51:59;;;;;;;3.70;2.10;;;;;;;17.21;44.43;96032.94;10360550;28;20490;-31
2024/01/18 22:57:00;;;;;;;3.00;2.17;;;;;;;17.20;44.32;96038.88;10366894;28;20038;-31
2024/01/18 23:02:00;;;;;;;3.75;2.25;;;;;;;17.20;43.45;96054.03;10367713;28;20045;-33
2024/01/18 23:07:00;;;;;;;4.30;2.23;;;;;;;17.21;42.84;96060.78;10368006;28;20037;-30
2024/01/18 23:12:01;;;;;;;3.80;2.13;;;;;;;17.21;42.82;96065.84;10367427;28;20044;-31
2024/01/18 23:17:01;;;;;;;3.05;2.22;;;;;;;17.20;41.62;96072.59;10368605;28;20030;-31